createdAt,value
2019-03-23T08:34:44.014Z,30.32
2019-03-23T08:37:17.997Z,32.63
2019-03-23T08:39:51.089Z,35.35
2019-03-23T08:42:23.867Z,33.28
2019-03-23T08:44:56.785Z,30.79
2019-03-23T08:47:29.563Z,31.88
2019-03-23T08:50:02.390Z,32.37
2019-03-23T08:52:35.208Z,28.65
2019-03-23T08:55:08.111Z,35.00
2019-03-23T08:57:41.593Z,36.56
2019-03-23T09:00:14.584Z,33.87
2019-03-23T09:02:47.403Z,33.72
2019-03-23T09:05:20.188Z,36.14
2019-03-23T09:07:53.004Z,38.99
2019-03-23T09:10:25.907Z,38.13
2019-03-23T09:12:58.715Z,37.91
2019-03-23T09:15:31.996Z,36.98
2019-03-23T09:18:04.811Z,36.75
2019-03-23T09:20:37.563Z,37.47
2019-03-23T09:23:10.329Z,40.41
2019-03-23T09:25:45.513Z,41.88
2019-03-23T09:28:17.671Z,43.28
2019-03-23T09:30:50.722Z,49.26
2019-03-23T09:33:23.482Z,50.41
2019-03-23T09:35:56.275Z,44.87
2019-03-23T09:38:29.188Z,43.52
2019-03-23T09:41:01.972Z,46.54
2019-03-23T09:43:34.765Z,48.96
2019-03-23T09:46:07.558Z,52.48
2019-03-23T09:48:40.351Z,53.18
2019-03-23T09:51:13.178Z,55.31
2019-03-23T09:53:46.002Z,56.75
2019-03-23T09:56:18.736Z,58.70
2019-03-23T09:58:51.867Z,57.15
2019-03-23T10:01:24.703Z,55.97
2019-03-23T10:03:57.482Z,56.46
2019-03-23T10:06:30.343Z,56.66
2019-03-23T10:09:03.996Z,57.31
2019-03-23T10:11:36.853Z,59.48
2019-03-23T10:14:09.666Z,60.55
2019-03-23T10:16:43.458Z,61.32
2019-03-23T10:19:16.300Z,60.57
2019-03-23T10:21:49.094Z,60.90
2019-03-23T10:24:21.861Z,63.49
2019-03-23T10:26:54.688Z,62.20
2019-03-23T10:29:27.520Z,58.74
2019-03-23T10:32:00.740Z,61.95
2019-03-23T10:34:33.534Z,62.11
2019-03-23T10:37:06.361Z,61.32
2019-03-23T10:39:39.151Z,59.76
2019-03-23T10:42:11.980Z,60.48
2019-03-23T10:44:44.766Z,60.38
2019-03-23T10:47:17.561Z,60.95
2019-03-23T10:49:50.939Z,61.23
2019-03-23T10:52:23.804Z,61.79
2019-03-23T10:54:56.602Z,61.45
2019-03-23T10:57:29.453Z,62.02
2019-03-23T11:00:02.473Z,61.08
2019-03-23T11:02:35.308Z,59.87
2019-03-23T11:05:08.772Z,59.18
2019-03-23T11:07:42.062Z,58.80
2019-03-23T11:10:15.265Z,59.21
2019-03-23T11:12:48.006Z,59.89
2019-03-23T11:15:21.057Z,60.40
2019-03-23T11:17:53.800Z,59.75
2019-03-23T11:20:26.503Z,58.15
2019-03-23T11:22:59.266Z,58.42
2019-03-23T11:25:31.988Z,55.58
2019-03-23T11:28:04.758Z,55.70
2019-03-23T11:30:37.550Z,57.03
2019-03-23T11:33:10.415Z,55.12
2019-03-23T11:35:43.198Z,55.72
2019-03-23T11:38:15.930Z,54.23
2019-03-23T11:40:54.040Z,54.54
2019-03-23T11:43:23.179Z,54.63
2019-03-23T11:45:56.024Z,55.92
2019-03-23T11:48:28.813Z,54.36
2019-03-23T11:51:01.600Z,53.57
2019-03-23T11:53:34.366Z,52.73
2019-03-23T11:56:07.150Z,47.56
2019-03-23T11:58:39.948Z,44.39
2019-03-23T12:01:12.732Z,40.66
2019-03-23T12:03:45.536Z,37.36
2019-03-23T12:06:18.320Z,34.61
2019-03-23T12:08:51.508Z,31.80
2019-03-23T12:11:24.403Z,30.88
2019-03-23T12:13:57.203Z,28.97
2019-03-23T12:16:30.033Z,27.37
2019-03-23T12:19:02.851Z,27.02
2019-03-23T12:21:35.714Z,26.30
2019-03-23T12:24:08.538Z,25.42
2019-03-23T12:26:41.298Z,24.46
2019-03-23T12:29:14.077Z,23.92
2019-03-23T12:31:46.821Z,23.64
2019-03-23T12:34:19.719Z,23.79
2019-03-23T12:36:52.590Z,23.00
2019-03-23T12:39:25.395Z,22.86
2019-03-23T12:41:58.208Z,22.53
2019-03-23T12:44:31.473Z,21.94
2019-03-23T12:47:04.234Z,21.98
2019-03-23T12:49:37.006Z,21.35
2019-03-23T12:52:09.802Z,21.22
2019-03-23T12:54:42.561Z,21.17
2019-03-23T12:57:15.365Z,21.35
2019-03-23T12:59:48.159Z,21.44
2019-03-23T13:02:21.366Z,21.23
2019-03-23T13:04:54.203Z,21.19
2019-03-23T13:07:26.964Z,21.12
2019-03-23T13:09:59.775Z,20.98
2019-03-23T13:12:32.575Z,20.84
2019-03-23T13:15:06.337Z,20.89
2019-03-23T13:17:39.076Z,20.93
2019-03-23T13:20:12.494Z,21.02
2019-03-23T13:22:45.358Z,20.91
2019-03-23T13:25:18.242Z,20.92
2019-03-23T13:27:51.100Z,21.14
2019-03-23T13:30:23.906Z,20.76
2019-03-23T13:32:56.781Z,20.63
2019-03-23T13:35:29.541Z,20.55
2019-03-23T13:38:02.325Z,20.57
2019-03-23T13:40:35.099Z,20.67
2019-03-23T13:43:07.875Z,20.63
2019-03-23T13:45:42.769Z,20.63
2019-03-23T13:48:15.841Z,20.61
2019-03-23T13:50:48.635Z,20.69
2019-03-23T13:53:21.456Z,20.65
2019-03-23T13:55:54.241Z,21.02
2019-03-23T13:58:26.994Z,20.82
2019-03-23T14:00:59.861Z,20.82
2019-03-23T14:03:32.667Z,20.78
2019-03-23T14:06:05.551Z,20.64
2019-03-23T14:08:38.315Z,20.65
2019-03-23T14:11:11.619Z,20.64
2019-03-23T14:13:44.408Z,20.54
2019-03-23T14:16:17.201Z,20.55
2019-03-23T14:18:49.999Z,20.63
2019-03-23T14:21:22.791Z,20.73
2019-03-23T14:23:55.740Z,20.43
2019-03-23T14:26:28.518Z,20.27
2019-03-23T14:29:01.269Z,20.14
2019-03-23T14:31:34.135Z,19.92
2019-03-23T14:34:06.909Z,19.93
2019-03-23T14:36:39.691Z,20.00
2019-03-23T14:39:12.495Z,20.02
2019-03-23T14:41:45.319Z,20.05
2019-03-23T14:44:18.107Z,20.27
2019-03-23T14:46:51.267Z,20.22
2019-03-23T14:49:24.081Z,20.12
2019-03-23T14:51:56.864Z,20.09
2019-03-23T14:54:29.733Z,19.83
2019-03-23T14:57:02.552Z,19.77
2019-03-23T14:59:35.340Z,19.90
2019-03-23T15:02:08.171Z,19.77
2019-03-23T15:04:41.369Z,19.65
2019-03-23T15:07:14.153Z,19.73
2019-03-23T15:09:47.029Z,19.68
2019-03-23T15:12:19.835Z,19.50
2019-03-23T15:14:52.623Z,19.49
2019-03-23T15:17:25.441Z,19.44
2019-03-23T15:19:58.255Z,19.37
2019-03-23T15:22:31.096Z,19.47
2019-03-23T15:25:03.875Z,19.38
2019-03-23T15:27:36.711Z,19.32
2019-03-23T15:30:10.196Z,19.33
2019-03-23T15:32:42.995Z,19.21
2019-03-23T15:35:15.901Z,19.24
2019-03-23T15:37:48.721Z,19.23
2019-03-23T15:40:21.916Z,19.09
2019-03-23T15:42:54.738Z,19.04
2019-03-23T15:45:27.487Z,18.98
2019-03-23T15:48:00.350Z,18.87
2019-03-23T15:50:33.123Z,18.88
2019-03-23T15:53:05.907Z,18.83
2019-03-23T15:55:38.696Z,18.79
2019-03-23T15:58:11.432Z,18.65
2019-03-23T16:00:44.224Z,18.54
2019-03-23T16:03:17.059Z,18.49
2019-03-23T16:05:49.844Z,18.43
2019-03-23T16:08:22.764Z,18.32
2019-03-23T16:10:55.493Z,18.29
2019-03-23T16:13:28.466Z,18.39
2019-03-23T16:16:01.636Z,18.21
2019-03-23T16:18:34.527Z,18.10
2019-03-23T16:21:07.497Z,17.99
2019-03-23T16:23:40.363Z,17.94
2019-03-23T16:26:13.162Z,17.78
2019-03-23T16:28:45.959Z,17.68
2019-03-23T16:31:18.791Z,17.55
2019-03-23T16:33:51.612Z,17.41
2019-03-23T16:36:24.414Z,17.26
2019-03-23T16:38:57.583Z,17.13
2019-03-23T16:41:30.529Z,17.01
2019-03-23T16:44:03.343Z,16.85
2019-03-23T16:46:36.140Z,16.75
2019-03-23T16:49:08.919Z,16.63
2019-03-23T16:51:42.097Z,16.51
2019-03-23T16:54:14.856Z,16.37
2019-03-23T16:56:47.633Z,16.24
2019-03-23T16:59:20.411Z,16.11
2019-03-23T17:01:53.180Z,15.97
2019-03-23T17:04:25.992Z,15.86
2019-03-23T17:06:58.768Z,15.75
2019-03-23T17:09:31.934Z,15.64
2019-03-23T17:12:04.686Z,15.56
2019-03-23T17:14:37.475Z,15.49
2019-03-23T17:17:10.319Z,15.39
2019-03-23T17:19:43.108Z,15.32
2019-03-23T17:22:15.883Z,15.22
2019-03-23T17:24:48.715Z,15.14
2019-03-23T17:27:21.856Z,15.06
2019-03-23T17:29:54.688Z,14.98
2019-03-23T17:32:27.552Z,14.92
2019-03-23T17:35:00.492Z,14.87
2019-03-23T17:37:33.286Z,14.81
2019-03-23T17:40:06.185Z,14.78
2019-03-23T17:42:39.058Z,14.80
2019-03-23T17:45:12.802Z,14.77
2019-03-23T17:47:45.642Z,14.72
2019-03-23T17:50:18.415Z,14.65
2019-03-23T17:52:51.517Z,14.64
2019-03-23T17:55:24.297Z,14.59
2019-03-23T17:57:57.097Z,14.58
2019-03-23T18:00:30.545Z,14.53
2019-03-23T18:03:03.553Z,14.47
2019-03-23T18:05:36.350Z,14.45
2019-03-23T18:08:09.234Z,14.38
2019-03-23T18:10:42.063Z,14.32
2019-03-23T18:13:16.705Z,14.24
2019-03-23T18:15:49.404Z,14.17
2019-03-23T18:18:22.165Z,14.12
2019-03-23T18:20:55.041Z,14.07
2019-03-23T18:23:27.794Z,14.02
2019-03-23T18:26:00.964Z,13.97
2019-03-23T18:28:33.741Z,13.92
2019-03-23T18:31:06.541Z,13.85
2019-03-23T18:33:39.342Z,13.77
2019-03-23T18:36:12.150Z,13.71
2019-03-23T18:38:44.964Z,13.62
2019-03-23T18:41:17.740Z,13.56
2019-03-23T18:43:50.521Z,13.49
2019-03-23T18:46:24.556Z,13.47
2019-03-23T18:48:57.655Z,13.44
2019-03-23T18:51:30.471Z,13.41
2019-03-23T18:54:03.268Z,13.35
2019-03-23T18:56:36.070Z,13.30
2019-03-23T18:59:08.921Z,13.25
2019-03-23T19:01:41.738Z,13.21
2019-03-23T19:04:14.541Z,13.15
2019-03-23T19:06:47.361Z,13.08
2019-03-23T19:09:20.163Z,13.02
2019-03-23T19:11:52.917Z,12.95
2019-03-23T19:14:25.746Z,12.88
2019-03-23T19:16:58.562Z,12.80
2019-03-23T19:19:31.354Z,12.74
2019-03-23T19:22:04.286Z,12.71
2019-03-23T19:24:37.061Z,12.66
2019-03-23T19:27:09.942Z,12.64
2019-03-23T19:29:42.802Z,12.63
2019-03-23T19:32:15.582Z,12.65
2019-03-23T19:34:48.398Z,12.64
2019-03-23T19:37:21.209Z,12.61
2019-03-23T19:39:54.013Z,12.55
2019-03-23T19:42:26.796Z,12.57
2019-03-23T19:44:59.659Z,12.54
2019-03-23T19:47:32.527Z,12.55
2019-03-23T19:50:05.897Z,12.55
2019-03-23T19:52:38.707Z,12.49
2019-03-23T19:55:12.957Z,12.43
2019-03-23T19:57:45.755Z,12.36
2019-03-23T20:00:18.771Z,12.28
2019-03-23T20:02:51.587Z,12.23
2019-03-23T20:05:24.408Z,12.17
2019-03-23T20:07:57.255Z,12.13
2019-03-23T20:10:30.030Z,12.09
2019-03-23T20:13:02.866Z,12.02
2019-03-23T20:15:35.667Z,11.98
2019-03-23T20:18:08.846Z,11.95
2019-03-23T20:20:41.993Z,11.92
2019-03-23T20:23:14.797Z,11.85
2019-03-23T20:25:47.520Z,11.83
2019-03-23T20:28:20.270Z,11.80
2019-03-23T20:30:53.130Z,11.77
2019-03-23T20:33:25.923Z,11.72
2019-03-23T20:35:58.747Z,11.71
2019-03-23T20:38:31.635Z,11.69
2019-03-23T20:41:04.525Z,11.67
2019-03-23T20:43:37.376Z,11.64
2019-03-23T20:46:12.998Z,11.61
2019-03-23T20:48:46.683Z,11.57
2019-03-23T20:51:19.517Z,11.53
2019-03-23T20:53:52.427Z,11.50
2019-03-23T20:56:25.236Z,11.47
2019-03-23T20:58:58.102Z,11.43
2019-03-23T21:01:30.936Z,11.40
2019-03-23T21:04:03.747Z,11.38
2019-03-23T21:06:36.550Z,11.34
2019-03-23T21:09:09.942Z,11.31
2019-03-23T21:11:42.738Z,11.28
2019-03-23T21:14:20.188Z,11.23
2019-03-23T21:16:50.146Z,11.22
2019-03-23T21:19:22.989Z,11.19
2019-03-23T21:21:55.865Z,11.15
2019-03-23T21:24:28.745Z,11.13
2019-03-23T21:27:03.990Z,11.10
2019-03-23T21:29:36.780Z,11.07
2019-03-23T21:32:09.589Z,11.02
2019-03-23T21:34:42.429Z,11.00
2019-03-23T21:37:15.247Z,10.98
2019-03-23T21:39:48.082Z,10.94
2019-03-23T21:42:21.135Z,10.92
2019-03-23T21:44:53.919Z,10.87
2019-03-23T21:47:26.766Z,10.86
2019-03-23T21:49:59.668Z,10.80
2019-03-23T21:52:32.523Z,10.86
2019-03-23T21:55:05.811Z,10.77
2019-03-23T21:57:38.603Z,10.82
2019-03-23T22:00:12.548Z,10.95
2019-03-23T22:02:45.307Z,10.98
2019-03-23T22:05:18.123Z,10.88
2019-03-23T22:07:51.291Z,10.85
2019-03-23T22:10:24.051Z,10.81
2019-03-23T22:12:56.846Z,10.73
2019-03-23T22:15:34.267Z,10.68
2019-03-23T22:18:08.583Z,10.65
2019-03-23T22:20:41.378Z,10.62
2019-03-23T22:23:14.178Z,10.58
2019-03-23T22:25:46.961Z,10.56
2019-03-23T22:28:19.767Z,10.53
2019-03-23T22:30:52.599Z,10.52
2019-03-23T22:33:25.453Z,10.49
2019-03-23T22:35:58.238Z,10.46
2019-03-23T22:38:31.288Z,10.44
2019-03-23T22:41:04.108Z,10.41
2019-03-23T22:43:36.901Z,10.39
2019-03-23T22:46:09.724Z,10.35
2019-03-23T22:48:42.537Z,10.31
2019-03-23T22:51:16.372Z,10.29
2019-03-23T22:53:49.154Z,10.26
2019-03-23T22:56:21.994Z,10.24
2019-03-23T22:58:54.788Z,10.22
2019-03-23T23:01:27.575Z,10.17
2019-03-23T23:04:00.741Z,10.12
2019-03-23T23:06:33.549Z,10.10
2019-03-23T23:09:09.109Z,10.06
2019-03-23T23:11:41.973Z,10.04
2019-03-23T23:14:14.905Z,9.97
2019-03-23T23:16:47.737Z,9.94
2019-03-23T23:19:20.527Z,9.89
2019-03-23T23:21:53.695Z,9.88
2019-03-23T23:24:26.491Z,9.86
2019-03-23T23:26:59.294Z,9.88
2019-03-23T23:29:32.067Z,9.96
2019-03-23T23:32:04.883Z,10.09
2019-03-23T23:34:37.648Z,10.25
2019-03-23T23:37:11.139Z,10.33
2019-03-23T23:39:43.919Z,10.45
2019-03-23T23:42:17.326Z,10.55
2019-03-23T23:44:50.358Z,10.63
2019-03-23T23:47:23.252Z,10.69
2019-03-23T23:49:56.183Z,10.70
2019-03-23T23:52:28.967Z,10.77
2019-03-23T23:55:01.748Z,10.75
2019-03-23T23:57:34.603Z,10.66
